Flight Track Log - Related Links

Times and Time Zones

All times are in EDT time to prevent confusion due to time zone crossing. See the UCA3597 flight status page for this flight to view local times or setup timezone preferences in your user account.

Time Position Orientation Groundspeed Altitude Reporting Facility
EDT Latitude Longitude Course Direction KTS MPH feet Rate Location/Type
Thu 06:01:00 PM 40.0385 -76.9815 19° North  Level Estimated
Thu 06:02:00 PM 40.1163 -76.9467 19° North  Level Estimated
Thu 06:03:00 PM 40.1942 -76.9119 19° North  Level Estimated
Thu 06:04:00 PM 40.2720 -76.8770 19° North  Level Estimated
Thu 06:05:00 PM 40.3498 -76.8420 19° North  Level Estimated
Thu 06:06:00 PM 40.4276 -76.8069 19° North  Level Estimated
Thu 06:07:00 PM 40.5054 -76.7717 19° North  Level Estimated
Thu 06:08:00 PM 40.5832 -76.7365 19° North  Level Estimated
Thu 06:09:00 PM 40.6610 -76.7012 19° North  Level Estimated
Thu 06:10:00 PM 40.7388 -76.6658 19° North  Level Estimated
Thu 06:11:00 PM 40.8165 -76.6303 19° North  Level Estimated
Thu 06:12:00 PM 40.8943 -76.5947 19° North  Level Estimated
Thu 06:13:00 PM 40.9720 -76.5591 19° North  Level Estimated
Thu 06:14:00 PM 41.0497 -76.5233 19° North  Level Estimated
Thu 06:15:00 PM 41.1274 -76.4875 19° North  Level Estimated
Thu 06:16:00 PM 41.2052 -76.4516 19° North  Level Estimated
Thu 06:17:00 PM 41.2828 -76.4156 19° North  Level Estimated
Thu 06:18:00 PM 41.3605 -76.3795 19° North  Level Estimated
Thu 06:19:00 PM 41.4382 -76.3433 19° North  Level Estimated
Thu 06:20:00 PM 41.5159 -76.3071 19° North  Level Estimated
Thu 06:21:00 PM 41.5935 -76.2707 19° North  Level Estimated
Thu 06:22:00 PM 41.6711 -76.2343 19° North  Level Estimated
Thu 06:23:00 PM 41.7487 -76.1978 19° North  Level Estimated
Thu 06:24:00 PM 41.8264 -76.1612 19° North  Level Estimated
Thu 06:25:00 PM 41.9040 -76.1245 19° North  Level Estimated
Thu 06:26:00 PM 41.9816 -76.0877 19° North  Level Estimated
Thu 06:27:00 PM 42.0591 -76.0508 19° North  Level Estimated
Thu 06:28:00 PM 42.1367 -76.0139 19° North  Level Estimated
Thu 06:29:00 PM 42.2084 -75.9796 19° North  Level Estimated
Thu 06:30:00 PM 42.2084 -75.9796 North  Level Estimated
Thu 06:31:00 PM 42.2084 -75.9796 North  Level Estimated
Thu 06:32:00 PM 42.2084 -75.9796 North  Level Estimated
Thu 06:33:00 PM 42.2084 -75.9796 North  Level Estimated
Thu 06:34:00 PM 42.2084 -75.9796 North  Level Estimated
Thu 06:35:00 PM 42.2084 -75.9796 North  Level Estimated
Thu 06:36:00 PM 42.2084 -75.9796 North  Level Estimated
Thu 06:37:00 PM 42.2084 -75.9796 North  Level Estimated
Thu 06:38:00 PM 42.2084 -75.9796 North  Level Estimated
Thu 06:39:00 PM 42.2084 -75.9796 North  Level Estimated
Thu 06:40:00 PM 42.2084 -75.9796 North  Level Estimated
Thu 06:41:00 PM 42.2084 -75.9796 North  Level Estimated
Thu 06:42:00 PM 42.2084 -75.9796 North  Level Estimated
Thu 06:43:00 PM 42.2084 -75.9796 North  Level Estimated
Thu 06:44:00 PM 42.2084 -75.9796 North  Level Estimated
Thu 06:45:00 PM 42.2084 -75.9796 North  Level Estimated

Login

Don't have an account? Register now (free) for customized features, flight alerts, and more!